Time;durP1;ratioP1;P1;durP2;ratioP2;P2;SDS_P1;SDS_P2;PMS_P1;PMS_P2;Temp;Humidity;BMP_temperature;BMP_pressure;BME280_temperature;BME280_humidity;BME280_pressure;Samples;Min_cycle;Max_cycle;Signal;HPM_P1;HPM_P2
2024/04/15 00:02:22;;;;;;;4.13;3.13;;;17.70;99.90;;;;;;5413917;26;20323;-71
2024/04/15 00:04:48;;;;;;;3.20;2.80;;;17.70;99.90;;;;;;5413297;26;20836;-72
2024/04/15 00:07:14;;;;;;;6.93;3.58;;;17.70;99.90;;;;;;5414035;26;20228;-73
2024/04/15 00:09:39;;;;;;;3.50;2.90;;;17.60;99.90;;;;;;5405850;26;20807;-73
2024/04/15 00:12:05;;;;;;;4.95;3.60;;;17.60;99.90;;;;;;5405098;26;20341;-73
2024/04/15 00:14:31;;;;;;;2.97;2.63;;;17.60;99.90;;;;;;5413227;26;20290;-73
2024/04/15 00:16:56;;;;;;;4.00;3.30;;;17.60;99.90;;;;;;5413952;26;20719;-74
2024/04/15 00:19:26;;;;;;;9.80;3.28;;;17.60;99.90;;;;;;5413885;26;20375;-72
2024/04/15 00:21:51;;;;;;;5.47;2.65;;;17.50;99.90;;;;;;5380089;26;20255;-73
2024/04/15 00:24:17;;;;;;;3.63;2.67;;;17.50;99.90;;;;;;5398055;26;20245;-72
2024/04/15 00:26:44;;;;;;;4.90;3.00;;;17.40;99.90;;;;;;5413962;26;20594;-72
2024/04/15 00:29:10;;;;;;;6.13;2.58;;;17.40;99.90;;;;;;5413264;26;20270;-72
2024/04/15 00:31:35;;;;;;;4.65;2.42;;;17.40;99.90;;;;;;5409746;26;20229;-73
2024/04/15 00:34:01;;;;;;;3.90;2.22;;;17.40;99.90;;;;;;5346617;26;20272;-74
2024/04/15 00:36:27;;;;;;;3.90;2.85;;;17.40;99.90;;;;;;5395427;26;20237;-73
2024/04/15 00:38:52;;;;;;;5.90;2.50;;;17.30;99.90;;;;;;5393394;26;20230;-73
2024/04/15 00:41:18;;;;;;;2.70;2.50;;;17.40;99.90;;;;;;5352641;26;20261;-75
2024/04/15 00:43:43;;;;;;;4.10;2.88;;;17.40;99.90;;;;;;5352289;26;20265;-72
2024/04/15 00:46:09;;;;;;;6.65;2.78;;;17.40;99.90;;;;;;5393362;26;20229;-72
2024/04/15 00:48:36;;;;;;;12.23;2.70;;;17.30;99.90;;;;;;5385179;26;20240;-72
2024/04/15 00:51:02;;;;;;;5.63;2.47;;;17.30;99.90;;;;;;5390839;26;20276;-71
2024/04/15 00:53:28;;;;;;;3.03;2.40;;;17.30;99.90;;;;;;5380185;26;20233;-74
2024/04/15 00:55:58;;;;;;;3.08;2.50;;;17.30;99.90;;;;;;5389873;26;20236;-73
2024/04/15 00:58:25;;;;;;;2.90;2.50;;;17.30;99.90;;;;;;5416542;26;20528;-69
2024/04/15 01:00:53;;;;;;;2.85;2.40;;;17.30;99.90;;;;;;5417424;26;20278;-72
2024/04/15 01:03:19;;;;;;;3.75;2.40;;;17.30;99.90;;;;;;5417349;26;20868;-73
2024/04/15 01:05:44;;;;;;;3.90;2.65;;;17.30;99.90;;;;;;5369895;26;20229;-73
2024/04/15 01:08:11;;;;;;;4.75;2.53;;;17.20;99.90;;;;;;5417939;26;20332;-71
2024/04/15 01:10:37;;;;;;;4.60;2.38;;;17.20;99.90;;;;;;5418018;26;20337;-72
2024/04/15 01:13:04;;;;;;;2.60;2.20;;;17.10;99.90;;;;;;5421464;26;20682;-73
2024/04/15 01:15:29;;;;;;;3.83;2.33;;;17.00;99.90;;;;;;5417332;26;20237;-74
2024/04/15 01:17:57;;;;;;;3.80;2.40;;;17.10;99.90;;;;;;5416299;26;20283;-74
2024/04/15 01:20:23;;;;;;;2.90;2.05;;;17.10;99.90;;;;;;5370930;26;20683;-73
2024/04/15 01:22:55;;;;;;;6.10;1.85;;;17.00;99.90;;;;;;5385073;26;20240;-73
2024/04/15 01:25:21;;;;;;;6.88;2.53;;;16.90;99.90;;;;;;5386515;26;20241;-75
2024/04/15 01:27:47;;;;;;;9.30;2.25;;;16.90;99.90;;;;;;5404434;26;20236;-74
2024/04/15 01:30:12;;;;;;;5.85;2.53;;;16.70;99.90;;;;;;5393514;26;20751;-73
2024/04/15 01:32:38;;;;;;;4.97;2.38;;;16.50;99.90;;;;;;5382349;26;20750;-73
2024/04/15 01:35:04;;;;;;;5.78;2.28;;;16.40;99.90;;;;;;5394066;26;20240;-73
2024/04/15 01:37:29;;;;;;;3.15;2.35;;;16.30;99.90;;;;;;5385156;26;20234;-72
2024/04/15 01:39:55;;;;;;;3.08;2.30;;;16.10;99.90;;;;;;5381352;26;20241;-73
2024/04/15 01:42:20;;;;;;;3.55;2.10;;;16.00;99.90;;;;;;5380223;26;20286;-72
2024/04/15 01:44:46;;;;;;;3.60;2.20;;;16.00;99.90;;;;;;5393252;26;20238;-71
2024/04/15 01:47:12;;;;;;;3.00;2.20;;;15.90;99.90;;;;;;5354566;26;20245;-72
2024/04/15 01:49:37;;;;;;;4.28;2.08;;;16.00;99.90;;;;;;5380081;26;20230;-72
2024/04/15 01:52:03;;;;;;;3.85;2.42;;;16.00;99.90;;;;;;5397020;26;20337;-73
2024/04/15 01:54:29;;;;;;;3.45;2.28;;;16.10;99.90;;;;;;5383032;26;20236;-72
2024/04/15 01:56:54;;;;;;;2.63;2.10;;;16.00;99.90;;;;;;5414628;26;20654;-73
2024/04/15 01:59:20;;;;;;;3.90;2.33;;;16.00;99.90;;;;;;5400372;26;20275;-72
2024/04/15 02:01:45;;;;;;;5.32;2.80;;;16.00;99.90;;;;;;5383922;26;20315;-74
2024/04/15 02:04:11;;;;;;;3.58;2.63;;;16.00;99.90;;;;;;5384474;26;20724;-74
2024/04/15 02:06:37;;;;;;;4.35;2.97;;;16.00;99.90;;;;;;5385125;26;20346;-72
2024/04/15 02:09:02;;;;;;;6.03;2.70;;;16.00;99.90;;;;;;5354936;26;20726;-72
2024/04/15 02:11:28;;;;;;;5.57;2.78;;;16.10;99.90;;;;;;5398592;26;20274;-74
2024/04/15 02:13:54;;;;;;;7.88;2.90;;;16.10;99.90;;;;;;5413374;26;20291;-73
2024/04/15 02:16:19;;;;;;;3.75;2.20;;;16.10;99.90;;;;;;5386055;26;20680;-73
2024/04/15 02:18:45;;;;;;;7.70;3.20;;;16.10;99.90;;;;;;5351320;26;20288;-73
2024/04/15 02:21:11;;;;;;;4.97;2.17;;;16.10;99.90;;;;;;5380456;26;20614;-71
2024/04/15 02:23:36;;;;;;;5.70;2.75;;;16.00;99.90;;;;;;5372079;26;20237;-73
2024/04/15 02:26:02;;;;;;;3.90;2.55;;;16.10;99.90;;;;;;5359805;26;20244;-72
2024/04/15 02:28:27;;;;;;;5.78;2.45;;;16.10;99.90;;;;;;5355465;26;20351;-73
2024/04/15 02:30:53;;;;;;;4.85;2.58;;;16.00;99.90;;;;;;5386080;26;20689;-73
2024/04/15 02:33:19;;;;;;;4.85;2.78;;;16.00;99.90;;;;;;5401236;26;20315;-73
2024/04/15 02:35:45;;;;;;;4.82;2.53;;;16.10;99.90;;;;;;5350998;26;20268;-74
2024/04/15 02:38:11;;;;;;;4.93;3.13;;;16.10;99.90;;;;;;5363914;26;20249;-72
2024/04/15 02:40:36;;;;;;;6.05;3.20;;;16.10;99.90;;;;;;5408211;26;20237;-72
2024/04/15 02:43:02;;;;;;;5.00;3.40;;;16.10;99.90;;;;;;5395074;26;20226;-73
2024/04/15 02:45:27;;;;;;;3.75;2.75;;;16.10;99.90;;;;;;5380040;26;20233;-73
2024/04/15 02:47:53;;;;;;;3.90;2.45;;;16.10;99.90;;;;;;5380893;26;20289;-74
2024/04/15 02:50:19;;;;;;;3.65;2.60;;;16.10;99.90;;;;;;5379675;26;20237;-73
2024/04/15 02:52:44;;;;;;;4.82;2.97;;;16.10;99.90;;;;;;5414299;26;20236;-72
2024/04/15 02:55:10;;;;;;;3.45;2.75;;;16.10;99.90;;;;;;5385829;26;20349;-72
2024/04/15 02:57:35;;;;;;;3.70;3.17;;;16.10;99.90;;;;;;5414203;26;20349;-72
2024/04/15 03:00:01;;;;;;;6.90;2.92;;;16.10;99.90;;;;;;5396660;26;20291;-72
2024/04/15 03:02:27;;;;;;;5.63;3.53;;;16.10;99.90;;;;;;5400021;26;20856;-73
2024/04/15 03:04:53;;;;;;;6.13;3.03;;;16.10;99.90;;;;;;5397620;26;20237;-73
2024/04/15 03:07:19;;;;;;;5.35;2.60;;;16.10;99.90;;;;;;5417279;26;20296;-73
2024/04/15 03:09:44;;;;;;;5.03;3.25;;;16.00;99.90;;;;;;5415319;26;20585;-73
2024/04/15 03:12:12;;;;;;;3.60;3.13;;;16.00;99.90;;;;;;5400943;26;20299;-73
2024/04/15 03:14:38;;;;;;;2.72;2.47;;;16.00;99.90;;;;;;5398860;26;20233;-73
2024/04/15 03:17:04;;;;;;;3.75;2.50;;;16.00;99.90;;;;;;5360881;26;20234;-72
2024/04/15 03:19:29;;;;;;;3.47;2.08;;;16.10;99.90;;;;;;5371629;26;20248;-73
2024/04/15 03:21:55;;;;;;;3.75;2.90;;;16.00;99.90;;;;;;5349172;26;20261;-73
2024/04/15 03:24:20;;;;;;;4.00;2.42;;;15.90;99.90;;;;;;5389784;26;20237;-73
2024/04/15 03:26:46;;;;;;;4.45;2.83;;;15.90;99.90;;;;;;5336707;26;20236;-72
2024/04/15 03:29:11;;;;;;;4.57;2.45;;;15.90;99.90;;;;;;5378853;26;20666;-74
2024/04/15 03:31:37;;;;;;;3.10;2.60;;;15.90;99.90;;;;;;5358311;26;20275;-75
2024/04/15 03:34:03;;;;;;;7.55;2.78;;;15.90;99.90;;;;;;5362965;26;20344;-73
2024/04/15 03:36:29;;;;;;;4.65;2.83;;;15.90;99.90;;;;;;5413790;26;20233;-72
2024/04/15 03:38:54;;;;;;;4.25;2.90;;;15.80;99.90;;;;;;5382012;26;20279;-72
2024/04/15 03:41:20;;;;;;;4.25;3.17;;;15.80;99.90;;;;;;5382659;26;20757;-75
2024/04/15 03:43:45;;;;;;;3.65;2.75;;;15.80;99.90;;;;;;5364157;26;20244;-74
2024/04/15 03:46:11;;;;;;;3.92;2.33;;;15.90;99.90;;;;;;5393525;26;20277;-72
2024/04/15 03:48:37;;;;;;;5.43;2.63;;;15.90;99.90;;;;;;5394178;26;20233;-73
2024/04/15 03:51:02;;;;;;;6.35;2.30;;;16.50;99.90;;;;;;5382647;26;20236;-72
2024/04/15 03:53:28;;;;;;;9.10;2.40;;;17.00;99.90;;;;;;5400603;26;20250;-73
2024/04/15 03:55:54;;;;;;;5.15;2.40;;;17.40;99.90;;;;;;5395055;26;20280;-72
2024/04/15 03:58:20;;;;;;;4.07;2.22;;;17.70;99.90;;;;;;5380091;26;20265;-74
2024/04/15 04:00:47;;;;;;;4.15;2.63;;;17.80;99.90;;;;;;5378354;26;20382;-72
2024/04/15 04:03:14;;;;;;;6.22;3.13;;;17.70;99.90;;;;;;5378478;26;20302;-73
2024/04/15 04:05:41;;;;;;;3.00;2.42;;;17.30;99.90;;;;;;5378354;26;20311;-73
2024/04/15 04:08:06;;;;;;;4.30;2.85;;;16.90;99.90;;;;;;5391441;26;20313;-73
2024/04/15 04:10:32;;;;;;;4.32;3.10;;;16.60;99.90;;;;;;5393021;26;20240;-73
2024/04/15 04:12:57;;;;;;;4.32;2.95;;;16.20;99.90;;;;;;5382930;26;20561;-73
2024/04/15 04:15:23;;;;;;;4.75;3.03;;;16.00;99.90;;;;;;5417279;26;20240;-74
2024/04/15 04:17:49;;;;;;;7.20;3.15;;;15.90;99.90;;;;;;5400815;26;20250;-73
2024/04/15 04:20:14;;;;;;;4.28;3.10;;;15.80;99.90;;;;;;5362723;26;20688;-72
2024/04/15 04:22:40;;;;;;;6.28;3.60;;;15.70;99.90;;;;;;5381381;26;20643;-73
2024/04/15 04:25:05;;;;;;;6.50;3.20;;;15.60;99.90;;;;;;5382141;26;20334;-73
2024/04/15 04:27:31;;;;;;;6.13;3.50;;;15.60;99.90;;;;;;5351092;26;20615;-73
2024/04/15 04:29:57;;;;;;;8.60;3.50;;;15.50;99.90;;;;;;5351456;26;20736;-74
2024/04/15 04:32:22;;;;;;;7.38;3.25;;;15.50;99.90;;;;;;5402356;26;20292;-72
2024/04/15 04:34:48;;;;;;;4.70;3.30;;;15.50;99.90;;;;;;5366326;26;20268;-73
2024/04/15 04:37:14;;;;;;;4.47;3.45;;;15.50;99.90;;;;;;5395625;26;20233;-72
2024/04/15 04:39:39;;;;;;;4.70;3.42;;;15.50;99.90;;;;;;5382971;26;20284;-72
2024/04/15 04:42:05;;;;;;;10.23;3.42;;;15.40;99.90;;;;;;5355517;26;20403;-72
2024/04/15 04:44:31;;;;;;;6.30;3.67;;;15.30;99.90;;;;;;5365425;26;20252;-72
2024/04/15 04:46:56;;;;;;;6.18;3.45;;;15.30;99.90;;;;;;5399870;26;20589;-73
2024/04/15 04:49:22;;;;;;;5.70;3.13;;;15.30;99.90;;;;;;5381905;26;20974;-72
2024/04/15 04:51:47;;;;;;;10.82;3.75;;;15.30;99.90;;;;;;5351231;26;20245;-73
2024/04/15 04:54:16;;;;;;;8.57;3.75;;;15.30;99.90;;;;;;5380741;26;20237;-72
2024/04/15 04:56:42;;;;;;;6.10;3.65;;;15.30;99.90;;;;;;5381726;26;20273;-74
2024/04/15 04:59:07;;;;;;;4.65;3.58;;;15.30;99.90;;;;;;5361500;26;20265;-73
2024/04/15 05:01:33;;;;;;;4.22;3.50;;;15.30;99.90;;;;;;5398630;26;20240;-72
2024/04/15 05:03:58;;;;;;;8.05;3.33;;;15.30;99.90;;;;;;5353323;26;20608;-73
2024/04/15 05:06:24;;;;;;;4.85;3.17;;;15.30;99.90;;;;;;5384620;26;20231;-73
2024/04/15 05:08:50;;;;;;;4.75;3.72;;;15.40;99.90;;;;;;5400423;26;20278;-72
2024/04/15 05:11:16;;;;;;;5.13;3.22;;;15.30;99.90;;;;;;5381784;26;20253;-73
2024/04/15 05:13:42;;;;;;;3.33;3.03;;;15.30;99.90;;;;;;5391877;26;20342;-71
2024/04/15 05:16:12;;;;;;;7.28;3.30;;;15.30;99.90;;;;;;5395962;26;20732;-70
2024/04/15 05:18:39;;;;;;;6.10;3.22;;;15.20;99.90;;;;;;5350189;26;20290;-72
2024/04/15 05:21:10;;;;;;;5.70;3.03;;;15.20;99.90;;;;;;5399213;26;20316;-73
2024/04/15 05:23:35;;;;;;;3.67;3.30;;;15.20;99.90;;;;;;5395127;26;20242;-72
2024/04/15 05:26:01;;;;;;;8.13;3.78;;;15.20;99.90;;;;;;5413506;26;20237;-73
2024/04/15 05:28:27;;;;;;;5.00;3.33;;;15.10;99.90;;;;;;5416597;26;20228;-73
2024/04/15 05:30:54;;;;;;;4.18;3.03;;;15.10;99.90;;;;;;5400160;26;20241;-73
2024/04/15 05:33:20;;;;;;;3.88;3.28;;;15.10;99.90;;;;;;5395461;26;20233;-72
2024/04/15 05:35:46;;;;;;;3.85;3.13;;;15.10;99.90;;;;;;5349836;26;20238;-73
2024/04/15 05:38:13;;;;;;;4.05;3.03;;;15.10;99.90;;;;;;5350511;26;20238;-72
2024/04/15 05:40:38;;;;;;;6.80;3.22;;;15.10;99.90;;;;;;5380658;26;20693;-73
2024/04/15 05:43:09;;;;;;;6.10;3.28;;;15.10;99.90;;;;;;5369019;26;20314;-71
2024/04/15 05:45:36;;;;;;;5.40;3.25;;;15.20;99.90;;;;;;5401322;26;20644;-73
2024/04/15 05:48:02;;;;;;;3.92;3.00;;;15.10;99.90;;;;;;5360010;26;20281;-73
2024/04/15 05:50:29;;;;;;;5.25;3.78;;;15.10;99.90;;;;;;5376037;26;20283;-73
2024/04/15 05:52:55;;;;;;;4.90;3.45;;;15.10;99.90;;;;;;5417095;26;20245;-72
2024/04/15 05:55:20;;;;;;;4.80;3.58;;;15.20;99.90;;;;;;5379059;26;20342;-73
2024/04/15 05:57:46;;;;;;;6.85;4.35;;;15.30;99.90;;;;;;5387090;26;20248;-73
2024/04/15 06:00:13;;;;;;;7.18;4.05;;;15.30;99.90;;;;;;5405874;26;20237;-72
2024/04/15 06:02:39;;;;;;;4.05;3.58;;;15.30;99.90;;;;;;5418111;26;20244;-73
2024/04/15 06:05:05;;;;;;;8.75;3.60;;;15.40;99.90;;;;;;5384856;26;20726;-72
2024/04/15 06:07:30;;;;;;;7.45;3.63;;;15.30;99.90;;;;;;5405020;26;20248;-73
2024/04/15 06:09:56;;;;;;;6.82;3.50;;;15.20;99.90;;;;;;5366260;26;20240;-73
2024/04/15 06:12:22;;;;;;;5.72;3.70;;;15.30;99.90;;;;;;5403681;26;20280;-73
2024/04/15 06:14:47;;;;;;;5.10;3.22;;;15.30;99.90;;;;;;5386976;26;20272;-73
2024/04/15 06:17:13;;;;;;;5.80;3.45;;;15.30;99.90;;;;;;5417390;26;20240;-73
2024/04/15 06:19:40;;;;;;;4.05;3.10;;;15.30;99.90;;;;;;5420179;26;20278;-74
2024/04/15 06:22:06;;;;;;;3.50;3.13;;;15.40;99.90;;;;;;5400509;26;20664;-72
2024/04/15 06:24:31;;;;;;;5.88;3.05;;;15.60;99.90;;;;;;5391376;26;20238;-73
2024/04/15 06:26:57;;;;;;;6.00;3.28;;;15.70;99.90;;;;;;5384382;26;20241;-74
2024/04/15 06:29:24;;;;;;;3.65;2.95;;;15.70;99.90;;;;;;5416098;26;20337;-73
2024/04/15 06:31:50;;;;;;;5.13;3.28;;;15.70;99.90;;;;;;5416547;26;20237;-72
2024/04/15 06:34:21;;;;;;;6.53;3.67;;;15.80;99.90;;;;;;5380648;26;20653;-71
2024/04/15 06:36:48;;;;;;;5.03;3.15;;;15.80;99.90;;;;;;5396968;26;20280;-72
2024/04/15 06:39:14;;;;;;;6.25;3.17;;;15.80;99.90;;;;;;5415019;26;20233;-72
2024/04/15 06:41:39;;;;;;;5.78;3.03;;;15.80;99.90;;;;;;5358030;26;20272;-72
2024/04/15 06:44:05;;;;;;;3.97;3.42;;;15.70;99.90;;;;;;5381466;26;20909;-73
2024/04/15 06:46:31;;;;;;;3.75;3.10;;;15.60;99.90;;;;;;5415733;26;20360;-72
2024/04/15 06:48:57;;;;;;;3.60;3.00;;;15.50;99.90;;;;;;5413532;26;20237;-73
2024/04/15 06:51:24;;;;;;;6.10;3.25;;;15.50;99.90;;;;;;5394889;26;20272;-73
2024/04/15 06:53:49;;;;;;;6.65;3.17;;;15.40;99.90;;;;;;5379930;26;20732;-72
2024/04/15 06:56:16;;;;;;;5.20;2.97;;;15.30;99.90;;;;;;5379741;26;20229;-72
2024/04/15 06:58:42;;;;;;;6.72;3.40;;;15.40;99.90;;;;;;5350877;26;20874;-72
2024/04/15 07:01:08;;;;;;;3.28;2.55;;;15.30;99.90;;;;;;5362866;26;20785;-73
2024/04/15 07:03:34;;;;;;;6.22;3.55;;;15.30;99.90;;;;;;5349114;26;20597;-71
2024/04/15 07:06:00;;;;;;;4.05;2.78;;;15.30;99.90;;;;;;5382701;26;20410;-72
2024/04/15 07:08:25;;;;;;;7.18;3.47;;;15.40;99.90;;;;;;5363857;26;20241;-72
2024/04/15 07:10:51;;;;;;;3.88;2.97;;;15.30;99.90;;;;;;5379201;26;20906;-72
2024/04/15 07:13:18;;;;;;;4.70;2.80;;;15.30;99.90;;;;;;5413231;26;20240;-74
2024/04/15 07:15:43;;;;;;;6.55;3.05;;;15.30;99.90;;;;;;5388311;26;20575;-73
2024/04/15 07:18:10;;;;;;;4.88;2.90;;;15.30;99.90;;;;;;5380113;26;20233;-72
2024/04/15 07:20:35;;;;;;;5.38;3.25;;;15.40;99.90;;;;;;5389651;26;20695;-74
2024/04/15 07:23:01;;;;;;;4.22;2.67;;;15.40;99.90;;;;;;5414931;26;20284;-72
2024/04/15 07:25:27;;;;;;;7.47;2.97;;;15.40;99.90;;;;;;5415144;26;20785;-73
2024/04/15 07:27:52;;;;;;;4.43;2.38;;;15.40;99.90;;;;;;5399797;26;20237;-72
2024/04/15 07:30:18;;;;;;;6.30;2.90;;;15.30;99.90;;;;;;5387226;26;20287;-72
2024/04/15 07:32:45;;;;;;;3.90;2.17;;;15.30;99.90;;;;;;5388946;26;20323;-71
2024/04/15 07:35:11;;;;;;;4.28;2.60;;;15.40;99.90;;;;;;5383522;26;20330;-73
2024/04/15 07:37:36;;;;;;;7.32;2.75;;;15.40;99.90;;;;;;5351844;26;20238;-73
2024/04/15 07:40:02;;;;;;;5.63;3.08;;;15.50;99.90;;;;;;5408777;26;20236;-73
2024/04/15 07:42:28;;;;;;;3.33;2.47;;;15.50;99.90;;;;;;5400466;26;20240;-72
2024/04/15 07:44:54;;;;;;;3.92;2.45;;;15.50;99.90;;;;;;5389214;26;20330;-73
2024/04/15 07:47:19;;;;;;;4.68;2.45;;;15.40;99.90;;;;;;5380566;26;20626;-72
2024/04/15 07:49:45;;;;;;;4.15;2.97;;;15.40;99.90;;;;;;5383967;26;20852;-73
2024/04/15 07:52:11;;;;;;;4.18;3.00;;;15.50;99.90;;;;;;5382315;26;20287;-74
2024/04/15 07:54:36;;;;;;;4.95;2.38;;;15.40;99.90;;;;;;5393195;26;20234;-71
2024/04/15 07:57:03;;;;;;;4.72;2.42;;;15.50;99.90;;;;;;5379440;26;20303;-74
2024/04/15 07:59:28;;;;;;;2.70;2.20;;;15.40;99.90;;;;;;5383167;26;20551;-73
2024/04/15 08:01:54;;;;;;;5.78;2.80;;;15.50;99.90;;;;;;5413154;26;20282;-74
2024/04/15 08:04:19;;;;;;;3.67;2.80;;;15.30;99.90;;;;;;5423447;26;20702;-72
2024/04/15 08:06:45;;;;;;;4.40;2.88;;;15.20;99.90;;;;;;5403876;26;20647;-72
2024/04/15 08:09:11;;;;;;;6.28;3.28;;;15.20;99.90;;;;;;5407195;26;20295;-72
2024/04/15 08:11:36;;;;;;;5.88;3.10;;;15.20;99.90;;;;;;5393555;26;20229;-73
2024/04/15 08:14:02;;;;;;;2.88;2.50;;;15.30;99.90;;;;;;5364431;26;20617;-73
2024/04/15 08:16:28;;;;;;;7.20;2.85;;;15.40;99.90;;;;;;5415171;26;20283;-73
2024/04/15 08:18:54;;;;;;;3.58;2.50;;;15.40;99.90;;;;;;5413526;26;20237;-73
2024/04/15 08:21:20;;;;;;;7.63;3.50;;;15.40;99.90;;;;;;5368154;26;20232;-73
2024/04/15 08:23:46;;;;;;;4.90;3.10;;;15.40;99.90;;;;;;5414402;26;20228;-72
2024/04/15 08:26:12;;;;;;;5.25;3.20;;;15.40;99.90;;;;;;5414077;26;20240;-72
2024/04/15 08:28:37;;;;;;;6.43;3.75;;;15.40;99.90;;;;;;5386187;26;20287;-73
2024/04/15 08:31:03;;;;;;;6.15;3.17;;;15.40;99.90;;;;;;5419177;26;20279;-72
2024/04/15 08:33:29;;;;;;;3.75;2.92;;;15.40;99.90;;;;;;5407746;26;20296;-72
2024/04/15 08:35:55;;;;;;;2.97;2.50;;;15.40;99.90;;;;;;5393235;26;20347;-73
2024/04/15 08:38:20;;;;;;;4.32;3.67;;;15.40;99.90;;;;;;5388766;26;20334;-73
2024/04/15 08:40:53;;;;;;;3.75;3.30;;;15.40;99.90;;;;;;5379631;26;20254;-71
2024/04/15 08:43:24;;;;;;;4.80;3.47;;;15.40;99.90;;;;;;5379361;26;20775;-73
2024/04/15 08:45:58;;;;;;;7.55;3.67;;;15.40;99.90;;;;;;5357955;26;20237;-72
2024/04/15 08:48:27;;;;;;;3.78;3.30;;;15.40;99.90;;;;;;5393585;26;20296;-73
2024/04/15 08:50:57;;;;;;;4.82;3.40;;;15.30;99.90;;;;;;5347640;26;20688;-72
2024/04/15 08:53:23;;;;;;;5.28;3.45;;;15.30;99.90;;;;;;5378128;26;20586;-71
2024/04/15 08:55:49;;;;;;;4.95;3.55;;;15.40;99.90;;;;;;5378120;26;20633;-73
2024/04/15 08:58:15;;;;;;;4.57;3.40;;;15.30;99.90;;;;;;5364252;26;20249;-72
2024/04/15 09:00:42;;;;;;;4.15;3.20;;;15.40;99.90;;;;;;5373096;26;20296;-72
2024/04/15 09:03:09;;;;;;;4.28;3.20;;;15.40;99.90;;;;;;5397362;26;20276;-71
2024/04/15 09:05:35;;;;;;;4.10;3.10;;;15.40;99.90;;;;;;5416507;26;20229;-73
2024/04/15 09:08:01;;;;;;;3.38;2.95;;;15.50;99.90;;;;;;5422412;26;20228;-72
2024/04/15 09:10:27;;;;;;;6.85;2.75;;;15.60;99.90;;;;;;5418683;26;20234;-74
2024/04/15 09:12:53;;;;;;;3.17;2.63;;;15.60;99.90;;;;;;5388254;26;20234;-73
2024/04/15 09:15:23;;;;;;;4.72;3.10;;;15.60;99.90;;;;;;5404451;26;20233;-72
2024/04/15 09:17:50;;;;;;;5.75;3.63;;;15.60;99.90;;;;;;5375469;26;20277;-72
2024/04/15 09:20:18;;;;;;;5.35;3.05;;;15.50;99.90;;;;;;5381862;26;20242;-72
2024/04/15 09:22:44;;;;;;;5.80;3.50;;;15.50;99.90;;;;;;5353571;26;20234;-73
2024/04/15 09:25:10;;;;;;;7.47;3.67;;;15.50;99.90;;;;;;5354651;26;20265;-72
2024/04/15 09:27:36;;;;;;;4.72;3.10;;;15.50;99.90;;;;;;5398911;26;20238;-73
2024/04/15 09:30:03;;;;;;;5.97;3.33;;;15.50;99.90;;;;;;5397394;26;20840;-74
2024/04/15 09:32:28;;;;;;;4.68;3.35;;;15.50;99.90;;;;;;5381616;26;20415;-72
2024/04/15 09:34:59;;;;;;;9.73;3.30;;;15.60;99.90;;;;;;5380510;26;20226;-71
2024/04/15 09:37:25;;;;;;;4.82;3.17;;;15.60;99.90;;;;;;5380900;26;20241;-72
2024/04/15 09:39:55;;;;;;;4.03;2.80;;;15.80;99.90;;;;;;5350059;26;20618;-73
2024/04/15 09:42:21;;;;;;;5.82;3.20;;;15.90;99.90;;;;;;5381166;26;20292;-74
2024/04/15 09:44:50;;;;;;;6.10;3.88;;;16.00;99.90;;;;;;5398485;26;20253;-72
2024/04/15 09:47:19;;;;;;;5.13;3.20;;;16.00;99.90;;;;;;5396911;26;20590;-72
2024/04/15 09:49:47;;;;;;;4.32;3.85;;;16.10;99.90;;;;;;5405151;26;20749;-74
2024/04/15 09:52:24;;;;;;;5.75;3.67;;;16.30;99.90;;;;;;5385762;26;20332;-72
2024/04/15 09:55:02;;;;;;;6.13;3.17;;;16.60;99.90;;;;;;5416963;26;20241;-72
2024/04/15 09:57:30;;;;;;;7.43;3.90;;;16.70;99.90;;;;;;5403548;26;20277;-72
2024/04/15 09:59:57;;;;;;;6.95;3.33;;;16.90;99.90;;;;;;5401296;26;20232;-72
2024/04/15 10:02:26;;;;;;;5.80;3.30;;;17.10;99.90;;;;;;5396751;26;20249;-73
2024/04/15 10:04:56;;;;;;;8.20;3.58;;;17.40;99.90;;;;;;5373865;26;20568;-72
2024/04/15 10:07:25;;;;;;;5.28;3.17;;;17.80;99.90;;;;;;5410446;26;20242;-74
2024/04/15 10:09:51;;;;;;;3.50;2.67;;;18.20;99.90;;;;;;5403491;26;20369;-73
2024/04/15 10:12:17;;;;;;;9.32;3.42;;;18.70;99.90;;;;;;5397963;26;20739;-73
2024/04/15 10:14:43;;;;;;;5.50;3.58;;;19.00;99.90;;;;;;5380191;26;20268;-73
2024/04/15 10:17:09;;;;;;;9.23;4.40;;;19.30;99.90;;;;;;5349749;26;20237;-72
2024/04/15 10:19:34;;;;;;;4.57;2.88;;;19.50;99.90;;;;;;5380012;26;20724;-73
2024/04/15 10:22:01;;;;;;;4.70;3.38;;;19.60;99.90;;;;;;5380521;26;20233;-73
2024/04/15 10:24:27;;;;;;;3.15;2.85;;;19.60;99.90;;;;;;5349828;26;20238;-72
2024/04/15 10:26:56;;;;;;;4.95;3.25;;;19.50;99.90;;;;;;5392564;26;20347;-73
2024/04/15 10:29:24;;;;;;;5.85;2.72;;;19.50;99.90;;;;;;5399429;26;20242;-73
2024/04/15 10:31:55;;;;;;;5.03;3.42;;;19.50;99.90;;;;;;5380913;26;20346;-73
2024/04/15 10:34:22;;;;;;;3.60;2.75;;;19.60;99.90;;;;;;5381451;26;20234;-72
2024/04/15 10:36:50;;;;;;;6.05;2.50;;;19.30;99.90;;;;;;5382042;26;20605;-71
2024/04/15 10:39:17;;;;;;;4.70;2.72;;;19.30;99.90;;;;;;5382734;26;20238;-72
2024/04/15 10:41:44;;;;;;;4.32;2.65;;;19.20;99.90;;;;;;5404833;26;20744;-73
2024/04/15 10:44:10;;;;;;;5.22;2.90;;;18.90;99.90;;;;;;5407760;26;20700;-73
2024/04/15 10:46:40;;;;;;;4.30;2.92;;;18.50;99.90;;;;;;5354231;26;20271;-72
2024/04/15 10:49:06;;;;;;;8.85;3.42;;;18.40;99.90;;;;;;5383150;26;20356;-73
2024/04/15 10:51:33;;;;;;;4.68;3.22;;;18.40;99.90;;;;;;5382872;26;20244;-72
2024/04/15 10:53:59;;;;;;;6.63;3.40;;;18.60;99.90;;;;;;5367087;26;20769;-72
2024/04/15 10:56:25;;;;;;;5.15;3.30;;;18.70;99.90;;;;;;5385372;26;20234;-72
2024/04/15 10:58:51;;;;;;;6.43;2.75;;;18.70;99.90;;;;;;5338761;26;20692;-72
2024/04/15 11:01:17;;;;;;;4.35;2.92;;;18.60;99.90;;;;;;5348971;26;20331;-74
2024/04/15 11:03:43;;;;;;;3.35;2.72;;;18.50;99.90;;;;;;5379066;26;20230;-73
2024/04/15 11:06:09;;;;;;;5.60;3.08;;;18.40;99.90;;;;;;5384262;26;20590;-73
2024/04/15 11:08:36;;;;;;;3.70;2.35;;;18.30;99.90;;;;;;5395945;26;20769;-73
2024/04/15 11:11:01;;;;;;;6.18;2.85;;;18.20;99.90;;;;;;5352095;26;20242;-73
2024/04/15 11:13:27;;;;;;;3.45;2.80;;;18.10;99.90;;;;;;5386814;26;20237;-73
2024/04/15 11:15:54;;;;;;;7.55;2.83;;;18.00;99.90;;;;;;5386969;26;20245;-72
2024/04/15 11:18:23;;;;;;;5.70;2.45;;;18.10;99.90;;;;;;5347742;26;20250;-74
2024/04/15 11:20:58;;;;;;;5.57;2.58;;;18.20;99.90;;;;;;5393714;26;20584;-72
2024/04/15 11:23:24;;;;;;;4.13;2.42;;;18.20;99.90;;;;;;5381971;26;20788;-72
2024/04/15 11:25:52;;;;;;;6.72;2.63;;;18.30;99.90;;;;;;5348051;26;20293;-73
2024/04/15 11:28:19;;;;;;;3.22;2.30;;;18.40;99.90;;;;;;5378039;26;20265;-72
2024/04/15 11:30:45;;;;;;;6.18;2.58;;;18.30;99.90;;;;;;5414318;26;20232;-72
2024/04/15 11:33:11;;;;;;;6.38;2.65;;;18.20;99.90;;;;;;5406811;26;20244;-73
2024/04/15 11:35:49;;;;;;;4.07;2.90;;;18.20;99.90;;;;;;5395190;26;20738;-73
2024/04/15 11:38:15;;;;;;;5.25;2.53;;;18.20;99.90;;;;;;5379709;26;20237;-72
2024/04/15 11:40:40;;;;;;;5.95;2.70;;;18.40;99.90;;;;;;5378333;26;20292;-72
2024/04/15 11:43:06;;;;;;;4.10;2.22;;;18.80;99.90;;;;;;5348079;26;20260;-72
2024/04/15 11:45:32;;;;;;;2.70;2.10;;;19.00;99.90;;;;;;5378903;26;20253;-74
2024/04/15 11:47:58;;;;;;;3.45;2.20;;;19.10;99.90;;;;;;5371625;26;20331;-74
2024/04/15 11:50:24;;;;;;;2.47;2.28;;;19.00;99.90;;;;;;5408846;26;20232;-72
2024/04/15 11:52:50;;;;;;;7.85;2.03;;;18.90;99.90;;;;;;5382671;26;20328;-73
2024/04/15 11:55:22;;;;;;;5.88;2.00;;;18.80;99.90;;;;;;5376046;26;20587;-73
2024/04/15 11:57:49;;;;;;;2.60;1.88;;;18.70;99.90;;;;;;5360272;26;20272;-74
2024/04/15 12:00:18;;;;;;;6.00;2.45;;;18.60;99.90;;;;;;5372055;26;20326;-73
2024/04/15 12:02:47;;;;;;;5.43;2.08;;;18.50;99.90;;;;;;5414931;26;20237;-72
2024/04/15 12:05:12;;;;;;;3.25;1.95;;;18.30;99.90;;;;;;5418902;26;20758;-72
2024/04/15 12:07:42;;;;;;;2.25;1.75;;;18.40;99.90;;;;;;5416144;26;20349;-73
2024/04/15 12:10:08;;;;;;;2.72;1.67;;;18.50;99.90;;;;;;5376534;26;20350;-72
2024/04/15 12:12:34;;;;;;;4.47;1.80;;;18.70;99.90;;;;;;5368031;26;20281;-72
2024/04/15 12:15:00;;;;;;;3.30;2.22;;;18.80;99.90;;;;;;5378735;26;20241;-73
2024/04/15 12:17:26;;;;;;;2.70;1.50;;;19.00;99.90;;;;;;5348108;26;20353;-72
2024/04/15 12:19:52;;;;;;;4.75;1.98;;;19.00;99.90;;;;;;5379166;26;20603;-71
2024/04/15 12:22:18;;;;;;;4.45;1.70;;;18.90;99.90;;;;;;5390760;26;20283;-73
2024/04/15 12:24:43;;;;;;;3.15;1.60;;;18.70;99.90;;;;;;5397918;26;20283;-74
2024/04/15 12:27:09;;;;;;;4.28;1.75;;;18.80;99.90;;;;;;5380153;26;20334;-72
2024/04/15 12:29:34;;;;;;;5.30;1.45;;;18.80;99.90;;;;;;5410631;26;20236;-72
2024/04/15 12:32:00;;;;;;;3.67;1.20;;;18.80;99.90;;;;;;5405078;26;20233;-74
2024/04/15 12:34:26;;;;;;;3.38;1.50;;;18.80;99.90;;;;;;5352897;26;20300;-74
2024/04/15 12:36:51;;;;;;;4.43;1.42;;;19.10;99.90;;;;;;5390362;26;20505;-72
2024/04/15 12:39:17;;;;;;;3.47;1.52;;;19.40;99.90;;;;;;5362688;26;20249;-74
2024/04/15 12:41:45;;;;;;;3.03;0.90;;;19.70;99.90;;;;;;5415552;26;20253;-74